createdAt,value
2023-04-30T00:00:16.227Z,11.09
2023-04-30T00:01:16.213Z,11.06
2023-04-30T00:02:16.281Z,11.07
2023-04-30T00:03:16.245Z,11.11
2023-04-30T00:04:16.297Z,11.09
2023-04-30T00:05:16.173Z,11.00
2023-04-30T00:06:16.185Z,11.06
2023-04-30T00:07:16.167Z,11.03
2023-04-30T00:08:16.168Z,11.00
2023-04-30T00:09:16.155Z,11.00
2023-04-30T00:10:16.129Z,11.00
2023-04-30T00:11:16.118Z,10.99
2023-04-30T00:12:16.107Z,10.97
2023-04-30T00:13:16.084Z,10.97
2023-04-30T00:14:16.081Z,10.94
2023-04-30T00:15:16.095Z,10.91
2023-04-30T00:16:16.081Z,10.91
2023-04-30T00:17:16.049Z,10.96
2023-04-30T00:18:16.039Z,10.88
2023-04-30T00:19:16.072Z,10.86
2023-04-30T00:20:16.019Z,10.81
2023-04-30T00:21:16.020Z,10.88
2023-04-30T00:22:16.019Z,10.81
2023-04-30T00:23:15.980Z,10.81
2023-04-30T00:24:15.989Z,10.84
2023-04-30T00:25:15.982Z,10.76
2023-04-30T00:26:15.961Z,10.76
2023-04-30T00:27:15.971Z,10.76
2023-04-30T00:28:15.924Z,10.68
2023-04-30T00:29:15.914Z,10.61
2023-04-30T00:30:15.906Z,10.68
2023-04-30T00:31:15.904Z,10.66
2023-04-30T00:32:15.925Z,10.63
2023-04-30T00:33:15.885Z,10.56
2023-04-30T00:34:15.864Z,10.64
2023-04-30T00:35:15.885Z,10.53
2023-04-30T00:36:15.868Z,10.61
2023-04-30T00:37:15.826Z,10.48
2023-04-30T00:38:15.835Z,10.55
2023-04-30T00:39:15.809Z,10.52
2023-04-30T00:40:15.815Z,10.52
2023-04-30T00:41:15.797Z,10.53
2023-04-30T00:42:15.777Z,10.45
2023-04-30T00:43:15.803Z,10.38
2023-04-30T00:44:15.754Z,10.36
2023-04-30T00:45:15.744Z,10.36
2023-04-30T00:46:15.782Z,10.36
2023-04-30T00:47:15.746Z,10.40
2023-04-30T00:48:15.712Z,10.36
2023-04-30T00:49:15.689Z,10.33
2023-04-30T00:50:15.688Z,10.30
2023-04-30T00:51:15.680Z,10.33
2023-04-30T00:52:15.704Z,10.29
2023-04-30T00:53:15.652Z,10.26
2023-04-30T00:54:15.668Z,10.25
2023-04-30T00:55:15.723Z,10.20
2023-04-30T00:56:15.636Z,10.14
2023-04-30T00:57:15.649Z,10.18
2023-04-30T00:58:15.619Z,10.11
2023-04-30T00:59:15.588Z,10.07
2023-04-30T01:00:15.615Z,10.07
2023-04-30T01:01:15.621Z,10.05
2023-04-30T01:02:15.595Z,10.04
2023-04-30T01:03:15.648Z,10.04
2023-04-30T01:04:15.561Z,10.09
2023-04-30T01:05:15.523Z,10.04
2023-04-30T01:06:15.525Z,10.05
2023-04-30T01:07:15.550Z,9.96
2023-04-30T01:08:15.498Z,9.91
2023-04-30T01:09:15.484Z,9.96
2023-04-30T01:10:15.487Z,10.02
2023-04-30T01:11:15.471Z,9.97
2023-04-30T01:12:15.466Z,9.91
2023-04-30T01:13:15.469Z,9.89
2023-04-30T01:14:15.426Z,9.86
2023-04-30T01:15:15.429Z,9.83
2023-04-30T01:16:15.464Z,9.86
2023-04-30T01:17:15.447Z,9.89
2023-04-30T01:18:15.578Z,9.90
2023-04-30T01:19:15.465Z,9.81
2023-04-30T01:20:15.361Z,9.79
2023-04-30T01:21:15.350Z,9.76
2023-04-30T01:22:15.338Z,9.86
2023-04-30T01:23:15.345Z,9.83
2023-04-30T01:24:15.313Z,9.68
2023-04-30T01:25:15.330Z,9.74
2023-04-30T01:26:15.289Z,9.68
2023-04-30T01:27:15.283Z,9.71
2023-04-30T01:28:15.272Z,9.74
2023-04-30T01:29:15.351Z,9.68
2023-04-30T01:30:15.273Z,9.75
2023-04-30T01:31:15.334Z,9.78
2023-04-30T01:32:15.233Z,9.69
2023-04-30T01:33:15.223Z,9.68
2023-04-30T01:34:15.237Z,9.65
2023-04-30T01:35:15.207Z,9.66
2023-04-30T01:36:15.211Z,9.72
2023-04-30T01:37:15.184Z,9.57
2023-04-30T01:38:15.184Z,9.69
2023-04-30T01:39:15.162Z,9.61
2023-04-30T01:40:15.162Z,9.50
2023-04-30T01:41:15.136Z,9.56
2023-04-30T01:42:15.149Z,9.56
2023-04-30T01:43:15.130Z,9.56
2023-04-30T01:44:15.101Z,9.48
2023-04-30T01:45:15.127Z,9.51
2023-04-30T01:46:15.195Z,9.50
2023-04-30T01:47:15.074Z,9.50
2023-04-30T01:48:15.059Z,9.35
2023-04-30T01:49:15.069Z,9.36
2023-04-30T01:50:15.045Z,9.46
2023-04-30T01:51:15.055Z,9.36
2023-04-30T01:52:15.016Z,9.33
2023-04-30T01:53:15.006Z,9.31
2023-04-30T01:54:14.991Z,9.18
2023-04-30T01:55:15.008Z,9.29
2023-04-30T01:56:14.992Z,9.32
2023-04-30T01:57:14.981Z,9.26
2023-04-30T01:58:14.953Z,9.24
2023-04-30T01:59:14.942Z,9.17
2023-04-30T02:00:14.980Z,9.13
2023-04-30T02:01:15.002Z,9.18
2023-04-30T02:02:14.909Z,9.13
2023-04-30T02:03:14.965Z,9.15
2023-04-30T02:04:14.881Z,9.10
2023-04-30T02:05:14.875Z,9.10
2023-04-30T02:06:14.925Z,9.05
2023-04-30T02:07:14.869Z,9.08
2023-04-30T02:08:14.859Z,9.10
2023-04-30T02:09:14.842Z,9.05
2023-04-30T02:10:14.824Z,9.04
2023-04-30T02:11:14.821Z,9.05
2023-04-30T02:12:14.812Z,8.99
2023-04-30T02:13:14.793Z,9.05
2023-04-30T02:14:14.788Z,9.05
2023-04-30T02:15:14.779Z,9.05
2023-04-30T02:16:14.838Z,9.04
2023-04-30T02:17:14.754Z,8.98
2023-04-30T02:18:14.785Z,8.95
2023-04-30T02:19:14.737Z,8.95
2023-04-30T02:20:14.722Z,8.95
2023-04-30T02:21:14.747Z,8.95
2023-04-30T02:22:14.703Z,8.94
2023-04-30T02:23:14.715Z,8.98
2023-04-30T02:24:14.695Z,8.92
2023-04-30T02:25:14.665Z,8.98
2023-04-30T02:26:14.654Z,8.92
2023-04-30T02:27:14.638Z,8.95
2023-04-30T02:28:14.663Z,8.95
2023-04-30T02:29:14.628Z,8.95
2023-04-30T02:30:14.600Z,8.92
2023-04-30T02:31:14.674Z,8.91
2023-04-30T02:32:14.584Z,8.89
2023-04-30T02:33:14.590Z,8.94
2023-04-30T02:34:14.586Z,8.89
2023-04-30T02:35:14.547Z,8.95
2023-04-30T02:36:14.568Z,8.96
2023-04-30T02:37:14.559Z,8.98
2023-04-30T02:38:14.515Z,8.94
2023-04-30T02:39:14.507Z,8.91
2023-04-30T02:40:14.503Z,8.98
2023-04-30T02:41:14.486Z,8.87
2023-04-30T02:42:14.465Z,8.89
2023-04-30T02:43:14.475Z,8.95
2023-04-30T02:44:14.446Z,8.80
2023-04-30T02:45:14.453Z,8.84
2023-04-30T02:46:14.456Z,8.87
2023-04-30T02:47:14.417Z,8.89
2023-04-30T02:48:14.403Z,8.96
2023-04-30T02:49:14.417Z,8.89
2023-04-30T02:50:14.376Z,8.89
2023-04-30T02:51:14.397Z,8.83
2023-04-30T02:52:14.368Z,8.77
2023-04-30T02:53:14.377Z,8.74
2023-04-30T02:54:14.339Z,8.73
2023-04-30T02:55:14.366Z,8.74
2023-04-30T02:56:14.314Z,8.74
2023-04-30T02:57:14.311Z,8.65
2023-04-30T02:58:14.321Z,8.74
2023-04-30T02:59:14.291Z,8.74
2023-04-30T03:00:14.269Z,8.71
2023-04-30T03:01:14.310Z,8.66
2023-04-30T03:02:14.273Z,8.62
2023-04-30T03:03:14.296Z,8.71
2023-04-30T03:04:14.256Z,8.58
2023-04-30T03:05:14.236Z,8.62
2023-04-30T03:06:14.264Z,8.63
2023-04-30T03:07:14.222Z,8.61
2023-04-30T03:08:14.273Z,8.70
2023-04-30T03:09:14.202Z,8.71
2023-04-30T03:10:14.180Z,8.65
2023-04-30T03:11:14.160Z,8.73
2023-04-30T03:12:14.144Z,8.56
2023-04-30T03:13:14.160Z,8.52
2023-04-30T03:14:14.119Z,8.62
2023-04-30T03:15:14.120Z,8.63
2023-04-30T03:16:14.125Z,8.61
2023-04-30T03:17:14.106Z,8.53
2023-04-30T03:18:14.133Z,8.55
2023-04-30T03:19:14.099Z,8.59
2023-04-30T03:20:14.058Z,8.63
2023-04-30T03:21:14.072Z,8.59
2023-04-30T03:22:14.041Z,8.62
2023-04-30T03:23:14.044Z,8.59
2023-04-30T03:24:14.021Z,8.58
2023-04-30T03:25:14.013Z,8.61
2023-04-30T03:26:14.011Z,8.50
2023-04-30T03:27:13.998Z,8.52
2023-04-30T03:28:13.971Z,8.53
2023-04-30T03:29:13.965Z,8.50
2023-04-30T03:30:13.958Z,8.50
2023-04-30T03:31:13.996Z,8.44
2023-04-30T03:32:13.932Z,8.52
2023-04-30T03:33:14.006Z,8.50
2023-04-30T03:34:13.910Z,8.52
2023-04-30T03:35:13.917Z,8.53
2023-04-30T03:36:13.905Z,8.45
2023-04-30T03:37:21.482Z,8.53
2023-04-30T03:38:13.887Z,8.55
2023-04-30T03:39:13.923Z,8.52
2023-04-30T03:40:13.845Z,8.47
2023-04-30T03:41:13.861Z,8.55
2023-04-30T03:42:13.875Z,8.48
2023-04-30T03:43:13.814Z,8.45
2023-04-30T03:44:13.825Z,8.48
2023-04-30T03:45:13.787Z,8.53
2023-04-30T03:46:13.814Z,8.48
2023-04-30T03:47:13.829Z,8.43
2023-04-30T03:48:13.858Z,8.45
2023-04-30T03:49:13.780Z,8.55
2023-04-30T03:50:13.738Z,8.40
2023-04-30T03:51:13.746Z,8.47
2023-04-30T03:52:13.749Z,8.43
2023-04-30T03:53:13.736Z,8.45
2023-04-30T03:54:13.695Z,8.43
2023-04-30T03:55:13.692Z,8.43
2023-04-30T03:56:13.677Z,8.45
2023-04-30T03:57:13.686Z,8.47
2023-04-30T03:58:13.737Z,8.34
2023-04-30T03:59:13.674Z,8.40
2023-04-30T04:00:13.661Z,8.33
2023-04-30T04:01:13.621Z,8.36
2023-04-30T04:02:13.643Z,8.30
2023-04-30T04:03:13.723Z,8.29
2023-04-30T04:04:13.677Z,8.33
2023-04-30T04:05:13.592Z,8.29
2023-04-30T04:06:13.598Z,8.34
2023-04-30T04:07:13.593Z,8.34
2023-04-30T04:08:13.548Z,8.36
2023-04-30T04:09:13.578Z,8.30
2023-04-30T04:10:13.537Z,8.34
2023-04-30T04:11:13.514Z,8.29
2023-04-30T04:12:13.503Z,8.29
2023-04-30T04:13:13.549Z,8.36
2023-04-30T04:14:13.477Z,8.30
2023-04-30T04:15:13.526Z,8.34
2023-04-30T04:16:13.491Z,8.38
2023-04-30T04:17:13.451Z,8.45
2023-04-30T04:18:13.451Z,8.45
2023-04-30T04:19:13.539Z,8.50
2023-04-30T04:20:14.137Z,8.55
2023-04-30T04:21:13.428Z,8.47
2023-04-30T04:22:13.390Z,8.50
2023-04-30T04:23:13.395Z,8.47
2023-04-30T04:24:13.395Z,8.45
2023-04-30T04:25:13.384Z,8.47
2023-04-30T04:26:13.345Z,8.52
2023-04-30T04:27:13.354Z,8.58
2023-04-30T04:28:13.346Z,8.53
2023-04-30T04:29:13.380Z,8.52
2023-04-30T04:30:13.342Z,8.59
2023-04-30T04:31:13.347Z,8.61
2023-04-30T04:32:13.312Z,8.55
2023-04-30T04:33:13.315Z,8.62
2023-04-30T04:34:13.290Z,8.58
2023-04-30T04:35:13.416Z,8.68
2023-04-30T04:36:13.263Z,8.58
2023-04-30T04:37:13.256Z,8.68
2023-04-30T04:38:13.258Z,8.65
2023-04-30T04:39:13.212Z,8.65
2023-04-30T04:40:13.203Z,8.74
2023-04-30T04:41:13.253Z,8.71
2023-04-30T04:42:13.188Z,8.65
2023-04-30T04:43:13.179Z,8.73
2023-04-30T04:44:13.152Z,8.74
2023-04-30T04:45:13.170Z,8.71
2023-04-30T04:46:14.432Z,8.77
2023-04-30T04:47:13.140Z,8.76
2023-04-30T04:48:13.105Z,8.76
2023-04-30T04:49:13.137Z,8.73
2023-04-30T04:50:13.109Z,8.71
2023-04-30T04:51:13.091Z,8.74
2023-04-30T04:52:13.072Z,8.68
2023-04-30T04:53:13.064Z,8.65
2023-04-30T04:54:13.114Z,8.56
2023-04-30T04:55:13.087Z,8.63
2023-04-30T04:56:13.030Z,8.66
2023-04-30T04:57:13.057Z,8.70
2023-04-30T04:58:12.999Z,8.79
2023-04-30T04:59:13.017Z,8.68
2023-04-30T05:00:12.990Z,8.80
2023-04-30T05:01:13.056Z,8.73
2023-04-30T05:02:12.963Z,8.63
2023-04-30T05:03:13.097Z,8.74
2023-04-30T05:04:12.938Z,8.63
2023-04-30T05:05:12.953Z,8.76
2023-04-30T05:06:12.969Z,8.66
2023-04-30T05:07:12.909Z,8.63
2023-04-30T05:08:12.955Z,8.71
2023-04-30T05:09:12.890Z,8.71
2023-04-30T05:10:12.885Z,8.56
2023-04-30T05:11:14.216Z,8.61
2023-04-30T05:12:12.910Z,8.55
2023-04-30T05:13:12.857Z,8.59
2023-04-30T05:14:12.831Z,8.68
2023-04-30T05:15:12.835Z,8.71
2023-04-30T05:16:12.878Z,8.76
2023-04-30T05:17:12.825Z,8.79
2023-04-30T05:18:12.796Z,8.74
2023-04-30T05:19:12.802Z,8.77
2023-04-30T05:20:12.789Z,8.76
2023-04-30T05:21:12.795Z,8.74
2023-04-30T05:22:12.745Z,8.77
2023-04-30T05:23:12.741Z,8.77
2023-04-30T05:24:12.786Z,8.71
2023-04-30T05:25:12.705Z,8.83
2023-04-30T05:26:12.726Z,8.77
2023-04-30T05:27:12.736Z,8.73
2023-04-30T05:28:12.693Z,8.71
2023-04-30T05:29:12.678Z,8.70
2023-04-30T05:30:12.655Z,8.71
2023-04-30T05:31:12.714Z,8.76
2023-04-30T05:32:12.738Z,8.79
2023-04-30T05:33:12.674Z,8.83
2023-04-30T05:34:12.636Z,8.77
2023-04-30T05:35:12.602Z,8.89
2023-04-30T05:36:12.597Z,8.89
2023-04-30T05:37:12.573Z,8.84
2023-04-30T05:38:12.591Z,8.83
2023-04-30T05:39:12.594Z,8.87
2023-04-30T05:40:12.558Z,8.81
2023-04-30T05:41:12.535Z,8.94
2023-04-30T05:42:12.543Z,8.95
2023-04-30T05:43:12.539Z,8.96
2023-04-30T05:44:12.563Z,8.98
2023-04-30T05:45:12.532Z,8.91
2023-04-30T05:46:12.548Z,9.04
2023-04-30T05:47:12.471Z,8.94
2023-04-30T05:48:12.555Z,9.04
2023-04-30T05:49:12.491Z,9.11
2023-04-30T05:50:12.493Z,9.10
2023-04-30T05:51:12.428Z,9.05
2023-04-30T05:52:12.421Z,9.08
2023-04-30T05:53:12.404Z,9.05
2023-04-30T05:54:12.410Z,9.05
2023-04-30T05:55:12.450Z,9.02
2023-04-30T05:56:12.387Z,9.01
2023-04-30T05:57:12.388Z,8.98
2023-04-30T05:58:12.360Z,9.05
2023-04-30T05:59:12.337Z,9.05
2023-04-30T06:00:12.359Z,9.08
2023-04-30T06:01:12.477Z,9.13
2023-04-30T06:02:12.372Z,9.08
2023-04-30T06:03:12.316Z,9.18
2023-04-30T06:04:12.282Z,9.24
2023-04-30T06:05:14.636Z,9.28
2023-04-30T06:06:12.419Z,9.17
2023-04-30T06:07:12.274Z,9.14
2023-04-30T06:08:12.275Z,8.91
2023-04-30T06:09:12.267Z,8.92
2023-04-30T06:10:12.225Z,8.98
2023-04-30T06:11:12.234Z,8.91
2023-04-30T06:12:12.217Z,8.98
2023-04-30T06:13:12.265Z,9.15
2023-04-30T06:14:12.182Z,9.10
2023-04-30T06:15:12.186Z,9.17
2023-04-30T06:16:12.246Z,9.10
2023-04-30T06:17:12.175Z,9.20
2023-04-30T06:18:12.145Z,9.17
2023-04-30T06:19:12.175Z,9.24
2023-04-30T06:20:12.115Z,9.23
2023-04-30T06:21:12.101Z,9.08
2023-04-30T06:22:12.135Z,9.14
2023-04-30T06:23:12.109Z,9.14
2023-04-30T06:24:12.082Z,9.15
2023-04-30T06:25:12.093Z,9.10
2023-04-30T06:26:12.070Z,8.91
2023-04-30T06:27:12.074Z,8.89
2023-04-30T06:28:12.040Z,8.99
2023-04-30T06:29:12.014Z,8.98
2023-04-30T06:30:12.032Z,9.05
2023-04-30T06:31:12.025Z,9.10
2023-04-30T06:32:11.994Z,9.10
2023-04-30T06:33:12.003Z,9.15
2023-04-30T06:34:12.060Z,9.20
2023-04-30T06:35:11.955Z,9.10
2023-04-30T06:36:11.957Z,9.10
2023-04-30T06:37:11.937Z,9.05
2023-04-30T06:38:11.919Z,9.20
2023-04-30T06:39:11.948Z,9.18
2023-04-30T06:40:11.902Z,9.21
2023-04-30T06:41:11.885Z,9.23
2023-04-30T06:42:11.875Z,9.28
2023-04-30T06:43:11.887Z,9.35
2023-04-30T06:44:11.914Z,9.38
2023-04-30T06:45:11.846Z,9.46
2023-04-30T06:46:11.971Z,9.47
2023-04-30T06:47:11.836Z,9.42
2023-04-30T06:48:11.829Z,9.47
2023-04-30T06:49:11.844Z,9.60
2023-04-30T06:50:11.847Z,9.68
2023-04-30T06:51:11.777Z,9.66
2023-04-30T06:52:11.790Z,9.76
2023-04-30T06:53:11.782Z,9.78
2023-04-30T06:54:11.772Z,9.84
2023-04-30T06:55:11.740Z,9.87
2023-04-30T06:56:11.771Z,9.94
2023-04-30T06:57:11.726Z,9.96
2023-04-30T06:58:11.712Z,9.97
2023-04-30T06:59:11.740Z,9.91
2023-04-30T07:00:11.688Z,10.02
2023-04-30T07:01:11.758Z,10.01
2023-04-30T07:02:11.682Z,10.07
2023-04-30T07:03:11.840Z,10.01
2023-04-30T07:04:11.644Z,9.99
2023-04-30T07:05:11.670Z,9.96
2023-04-30T07:06:11.675Z,9.96
2023-04-30T07:07:11.613Z,9.86
2023-04-30T07:08:11.623Z,9.91
2023-04-30T07:09:11.575Z,10.01
2023-04-30T07:10:11.572Z,10.08
2023-04-30T07:11:11.581Z,10.08
2023-04-30T07:12:11.573Z,10.18
2023-04-30T07:13:11.535Z,10.29
2023-04-30T07:14:11.528Z,10.42
2023-04-30T07:15:11.516Z,10.47
2023-04-30T07:16:11.650Z,10.53
2023-04-30T07:17:11.502Z,10.64
2023-04-30T07:18:11.607Z,10.67
2023-04-30T07:19:11.491Z,10.78
2023-04-30T07:20:11.465Z,10.88
2023-04-30T07:21:11.477Z,10.89
2023-04-30T07:22:11.445Z,11.03
2023-04-30T07:23:11.436Z,11.15
2023-04-30T07:24:11.440Z,11.35
2023-04-30T07:25:11.411Z,11.52
2023-04-30T07:26:11.417Z,11.88
2023-04-30T07:27:11.384Z,11.91
2023-04-30T07:28:11.401Z,12.14
2023-04-30T07:29:11.380Z,12.27
2023-04-30T07:30:11.362Z,12.37
2023-04-30T07:31:11.369Z,12.53
2023-04-30T07:32:11.332Z,12.68
2023-04-30T07:33:11.439Z,12.86
2023-04-30T07:34:11.344Z,12.95
2023-04-30T07:35:11.318Z,13.05
2023-04-30T07:36:11.294Z,12.90
2023-04-30T07:37:11.323Z,12.92
2023-04-30T07:38:11.279Z,13.08
2023-04-30T07:39:11.256Z,13.32
2023-04-30T07:40:12.065Z,13.54
2023-04-30T07:41:11.231Z,13.78
2023-04-30T07:42:11.223Z,14.00
2023-04-30T07:43:11.233Z,14.15
2023-04-30T07:44:11.210Z,14.40
2023-04-30T07:45:11.219Z,14.21
2023-04-30T07:46:11.216Z,14.21
2023-04-30T07:47:11.182Z,14.50
2023-04-30T07:48:11.218Z,14.35
2023-04-30T07:49:11.155Z,14.18
2023-04-30T07:50:11.162Z,14.32
2023-04-30T07:51:11.156Z,14.35
2023-04-30T07:52:11.147Z,14.22
2023-04-30T07:53:11.133Z,14.17
2023-04-30T07:54:11.109Z,14.20
2023-04-30T07:55:11.094Z,14.40
2023-04-30T07:56:11.074Z,14.24
2023-04-30T07:57:11.088Z,14.33
2023-04-30T07:58:11.054Z,14.60
2023-04-30T07:59:11.038Z,14.88
2023-04-30T08:00:11.035Z,15.07
2023-04-30T08:01:11.041Z,15.20
2023-04-30T08:02:11.035Z,15.56
2023-04-30T08:03:11.063Z,15.74
2023-04-30T08:04:11.115Z,15.72
2023-04-30T08:05:10.976Z,15.92
2023-04-30T08:06:11.032Z,16.05
2023-04-30T08:07:10.953Z,15.82
2023-04-30T08:08:10.952Z,15.97
2023-04-30T08:09:10.954Z,16.07
2023-04-30T08:10:10.936Z,16.12
2023-04-30T08:11:10.949Z,16.28
2023-04-30T08:12:10.901Z,16.25
2023-04-30T08:13:10.891Z,16.43
2023-04-30T08:14:10.880Z,16.58
2023-04-30T08:15:10.880Z,16.68
2023-04-30T08:16:10.906Z,16.86
2023-04-30T08:17:10.840Z,17.01
2023-04-30T08:18:10.940Z,17.01
2023-04-30T08:19:10.868Z,17.11
2023-04-30T08:20:10.823Z,17.36
2023-04-30T08:21:10.819Z,17.30
2023-04-30T08:22:10.823Z,17.36
2023-04-30T08:23:10.788Z,17.34
2023-04-30T08:24:10.811Z,17.26
2023-04-30T08:25:10.778Z,17.25
2023-04-30T08:26:10.754Z,17.36
2023-04-30T08:27:10.769Z,17.33
2023-04-30T08:28:10.756Z,17.41
2023-04-30T08:29:10.718Z,17.43
2023-04-30T08:30:10.716Z,17.55
2023-04-30T08:31:10.695Z,17.58
2023-04-30T08:32:10.783Z,17.71
2023-04-30T08:33:10.743Z,17.54
2023-04-30T08:34:10.670Z,17.40
2023-04-30T08:35:10.671Z,17.46
2023-04-30T08:36:10.660Z,17.28
2023-04-30T08:37:10.640Z,17.52
2023-04-30T08:38:10.633Z,17.58
2023-04-30T08:39:10.610Z,17.78
2023-04-30T08:40:10.604Z,17.95
2023-04-30T08:41:10.615Z,17.93
2023-04-30T08:42:10.601Z,17.93
2023-04-30T08:43:10.567Z,17.99
2023-04-30T08:44:10.622Z,18.12
2023-04-30T08:45:10.539Z,18.35
2023-04-30T08:46:10.620Z,18.42
2023-04-30T08:47:10.527Z,18.44
2023-04-30T08:48:10.547Z,18.36
2023-04-30T08:49:10.502Z,18.55
2023-04-30T08:50:10.514Z,18.54
2023-04-30T08:51:10.477Z,18.12
2023-04-30T08:52:10.476Z,18.07
2023-04-30T08:53:10.458Z,18.00
2023-04-30T08:54:10.577Z,18.11
2023-04-30T08:55:10.451Z,18.18
2023-04-30T08:56:10.452Z,18.21
2023-04-30T08:57:10.445Z,18.44
2023-04-30T08:58:10.439Z,18.32
2023-04-30T08:59:10.413Z,17.99
2023-04-30T09:00:10.420Z,18.08
2023-04-30T09:01:10.450Z,18.20
2023-04-30T09:02:10.489Z,18.30
2023-04-30T09:03:10.404Z,18.26
2023-04-30T09:04:10.443Z,18.33
2023-04-30T09:05:10.368Z,18.42
2023-04-30T09:06:10.364Z,18.35
2023-04-30T09:07:10.305Z,18.41
2023-04-30T09:08:10.340Z,17.97
2023-04-30T09:09:10.282Z,17.74
2023-04-30T09:10:10.286Z,17.95
2023-04-30T09:11:10.279Z,18.02
2023-04-30T09:12:10.269Z,18.25
2023-04-30T09:13:10.255Z,18.39
2023-04-30T09:14:10.268Z,18.48
2023-04-30T09:15:10.213Z,18.58
2023-04-30T09:16:10.351Z,18.70
2023-04-30T09:17:10.199Z,18.70
2023-04-30T09:18:10.244Z,18.81
2023-04-30T09:19:10.172Z,19.02
2023-04-30T09:20:10.199Z,19.13
2023-04-30T09:21:10.157Z,19.25
2023-04-30T09:22:10.146Z,19.40
2023-04-30T09:23:10.163Z,19.39
2023-04-30T09:24:10.510Z,19.28
2023-04-30T09:25:10.124Z,19.06
2023-04-30T09:26:10.158Z,19.19
2023-04-30T09:27:10.110Z,19.25
2023-04-30T09:28:10.104Z,19.43
2023-04-30T09:29:10.104Z,19.58
2023-04-30T09:30:10.061Z,19.68
2023-04-30T09:31:10.089Z,19.71
2023-04-30T09:32:10.059Z,19.56
2023-04-30T09:33:11.934Z,19.62
2023-04-30T09:34:10.014Z,19.74
2023-04-30T09:35:10.006Z,19.69
2023-04-30T09:36:10.025Z,19.68
2023-04-30T09:37:09.989Z,19.65
2023-04-30T09:38:09.991Z,19.69
2023-04-30T09:39:11.996Z,19.78
2023-04-30T09:40:09.953Z,19.87
2023-04-30T09:41:09.963Z,19.96
2023-04-30T09:42:09.966Z,20.14
2023-04-30T09:43:09.917Z,20.31
2023-04-30T09:44:09.928Z,20.28
2023-04-30T09:45:09.935Z,20.43
2023-04-30T09:46:09.929Z,20.32
2023-04-30T09:47:09.942Z,20.17
2023-04-30T09:48:17.249Z,20.32
2023-04-30T09:49:10.879Z,20.51
2023-04-30T09:50:09.864Z,20.50
2023-04-30T09:51:09.830Z,20.20
2023-04-30T09:52:09.820Z,20.18
2023-04-30T09:53:18.424Z,20.31
2023-04-30T09:54:09.803Z,20.38
2023-04-30T09:55:09.821Z,20.47
2023-04-30T09:56:09.777Z,20.59
2023-04-30T09:57:09.775Z,20.57
2023-04-30T09:58:09.816Z,20.64
2023-04-30T09:59:09.766Z,20.62
2023-04-30T10:00:09.732Z,20.79
2023-04-30T10:01:09.785Z,20.80
2023-04-30T10:02:09.722Z,20.77
2023-04-30T10:03:09.777Z,20.77
2023-04-30T10:04:09.750Z,20.85
2023-04-30T10:05:09.702Z,20.92
2023-04-30T10:06:09.688Z,20.95
2023-04-30T10:07:09.673Z,20.92
2023-04-30T10:08:09.655Z,20.99
2023-04-30T10:09:09.645Z,20.88
2023-04-30T10:10:09.670Z,21.04
2023-04-30T10:11:09.619Z,21.13
2023-04-30T10:12:09.609Z,20.99
2023-04-30T10:13:09.613Z,21.16
2023-04-30T10:14:09.596Z,21.17
2023-04-30T10:15:09.601Z,21.22
2023-04-30T10:16:09.617Z,21.12
2023-04-30T10:17:09.570Z,20.94
2023-04-30T10:18:09.556Z,20.92
2023-04-30T10:19:09.540Z,20.79
2023-04-30T10:20:09.553Z,20.82
2023-04-30T10:21:09.516Z,20.94
2023-04-30T10:22:09.526Z,21.06
2023-04-30T10:23:09.578Z,21.25
2023-04-30T10:24:09.498Z,21.10
2023-04-30T10:25:09.466Z,20.74
2023-04-30T10:26:09.466Z,20.80
2023-04-30T10:27:09.464Z,20.89
2023-04-30T10:28:09.436Z,20.82
2023-04-30T10:29:09.431Z,20.79
2023-04-30T10:30:09.443Z,20.67
2023-04-30T10:31:09.404Z,20.79
2023-04-30T10:32:09.417Z,20.80
2023-04-30T10:33:09.562Z,20.87
2023-04-30T10:34:09.394Z,20.80
2023-04-30T10:35:09.380Z,20.72
2023-04-30T10:36:09.359Z,20.79
2023-04-30T10:37:09.341Z,20.95
2023-04-30T10:38:09.318Z,20.97
2023-04-30T10:39:09.343Z,20.95
2023-04-30T10:40:09.320Z,20.94
2023-04-30T10:41:09.336Z,21.09
2023-04-30T10:42:09.289Z,21.21
2023-04-30T10:43:09.308Z,21.29
2023-04-30T10:44:09.299Z,21.34
2023-04-30T10:45:09.253Z,21.37
2023-04-30T10:46:09.290Z,21.49
2023-04-30T10:47:09.244Z,21.47
2023-04-30T10:48:09.337Z,21.49
2023-04-30T10:49:09.223Z,21.71
2023-04-30T10:50:09.205Z,21.71
2023-04-30T10:51:09.184Z,21.35
2023-04-30T10:52:09.177Z,21.06
2023-04-30T10:53:09.185Z,20.76
2023-04-30T10:54:09.156Z,20.88
2023-04-30T10:55:09.144Z,20.94
2023-04-30T10:56:09.816Z,20.80
2023-04-30T10:57:09.137Z,20.69
2023-04-30T10:58:09.105Z,20.59
2023-04-30T10:59:09.110Z,20.06
2023-04-30T11:00:09.092Z,20.21
2023-04-30T11:01:09.144Z,20.24
2023-04-30T11:02:09.060Z,20.17
2023-04-30T11:03:09.083Z,20.29
2023-04-30T11:04:09.037Z,20.14
2023-04-30T11:05:09.134Z,19.99
2023-04-30T11:06:09.069Z,20.08
2023-04-30T11:07:09.029Z,20.17
2023-04-30T11:08:09.017Z,20.10
2023-04-30T11:09:08.990Z,20.29
2023-04-30T11:10:08.970Z,20.58
2023-04-30T11:11:08.982Z,20.58
2023-04-30T11:12:08.972Z,20.70
2023-04-30T11:13:08.958Z,20.64
2023-04-30T11:14:08.946Z,20.84
2023-04-30T11:15:08.919Z,20.57
2023-04-30T11:16:08.971Z,20.52
2023-04-30T11:17:08.925Z,20.58
2023-04-30T11:18:08.961Z,20.80
2023-04-30T11:19:11.318Z,20.67
2023-04-30T11:20:08.868Z,20.61
2023-04-30T11:21:08.884Z,20.50
2023-04-30T11:22:08.857Z,20.48
2023-04-30T11:23:08.866Z,20.31
2023-04-30T11:24:08.827Z,20.17
2023-04-30T11:25:08.824Z,20.17
2023-04-30T11:26:08.799Z,20.31
2023-04-30T11:27:08.800Z,20.41
2023-04-30T11:28:08.818Z,20.51
2023-04-30T11:29:08.856Z,20.74
2023-04-30T11:30:08.765Z,20.82
2023-04-30T11:31:08.901Z,20.98
2023-04-30T11:32:08.740Z,21.16
2023-04-30T11:33:08.813Z,21.13
2023-04-30T11:34:08.742Z,20.94
2023-04-30T11:35:08.713Z,20.85
2023-04-30T11:36:08.695Z,20.74
2023-04-30T11:37:08.708Z,20.59
2023-04-30T11:38:08.691Z,20.42
2023-04-30T11:39:08.678Z,20.39
2023-04-30T11:40:08.673Z,20.31
2023-04-30T11:41:08.652Z,20.16
2023-04-30T11:42:08.630Z,20.41
2023-04-30T11:43:08.659Z,20.21
2023-04-30T11:44:08.610Z,20.28
2023-04-30T11:45:08.618Z,20.33
2023-04-30T11:46:08.698Z,20.41
2023-04-30T11:47:08.799Z,20.39
2023-04-30T11:48:08.597Z,20.51
2023-04-30T11:49:08.565Z,20.52
2023-04-30T11:50:08.683Z,20.51
2023-04-30T11:51:08.539Z,20.62
2023-04-30T11:52:08.552Z,20.51
2023-04-30T11:53:08.535Z,20.66
2023-04-30T11:54:08.507Z,20.80
2023-04-30T11:55:08.502Z,20.98
2023-04-30T11:56:08.501Z,20.98
2023-04-30T11:57:08.482Z,20.89
2023-04-30T11:58:08.461Z,21.06
2023-04-30T11:59:08.497Z,21.09
2023-04-30T12:00:08.501Z,21.27
2023-04-30T12:01:08.449Z,21.09
2023-04-30T12:02:08.577Z,21.03
2023-04-30T12:03:08.477Z,20.89
2023-04-30T12:04:08.451Z,20.79
2023-04-30T12:05:08.401Z,20.69
2023-04-30T12:06:08.423Z,20.57
2023-04-30T12:07:08.372Z,20.50
2023-04-30T12:08:08.388Z,20.24
2023-04-30T12:09:08.470Z,20.08
2023-04-30T12:10:08.406Z,20.18
2023-04-30T12:11:08.349Z,20.26
2023-04-30T12:12:08.335Z,20.38
2023-04-30T12:13:08.320Z,20.29
2023-04-30T12:14:08.308Z,20.48
2023-04-30T12:15:08.282Z,20.59
2023-04-30T12:16:08.288Z,20.52
2023-04-30T12:17:08.265Z,20.42
2023-04-30T12:18:09.544Z,20.51
2023-04-30T12:19:08.272Z,20.67
2023-04-30T12:20:08.263Z,20.79
2023-04-30T12:21:08.240Z,20.92
2023-04-30T12:22:08.234Z,21.01
2023-04-30T12:23:08.236Z,20.94
2023-04-30T12:24:08.222Z,20.77
2023-04-30T12:25:08.222Z,20.82
2023-04-30T12:26:08.160Z,20.62
2023-04-30T12:27:08.166Z,20.48
2023-04-30T12:28:08.163Z,20.48
2023-04-30T12:29:08.144Z,20.39
2023-04-30T12:30:08.219Z,20.35
2023-04-30T12:31:08.112Z,20.29
2023-04-30T12:32:08.185Z,20.23
2023-04-30T12:33:08.125Z,20.05
2023-04-30T12:34:08.092Z,20.10
2023-04-30T12:35:08.094Z,20.01
2023-04-30T12:36:08.076Z,19.84
2023-04-30T12:37:08.077Z,19.92
2023-04-30T12:38:08.039Z,19.86
2023-04-30T12:39:08.044Z,20.08
2023-04-30T12:40:08.103Z,20.01
2023-04-30T12:41:08.018Z,20.23
2023-04-30T12:42:08.011Z,20.32
2023-04-30T12:43:08.024Z,20.55
2023-04-30T12:44:07.988Z,20.50
2023-04-30T12:45:07.980Z,20.61
2023-04-30T12:46:08.021Z,20.82
2023-04-30T12:47:07.944Z,20.73
2023-04-30T12:48:07.976Z,20.80
2023-04-30T12:49:07.945Z,20.79
2023-04-30T12:50:07.923Z,20.77
2023-04-30T12:51:07.909Z,20.84
2023-04-30T12:52:07.891Z,20.89
2023-04-30T12:53:07.884Z,20.92
2023-04-30T12:54:07.897Z,20.89
2023-04-30T12:55:07.872Z,20.73
2023-04-30T12:56:07.846Z,20.62
2023-04-30T12:57:07.874Z,20.52
2023-04-30T12:58:07.819Z,20.58
2023-04-30T12:59:07.817Z,20.58
2023-04-30T13:00:07.824Z,20.48
2023-04-30T13:01:07.804Z,20.51
2023-04-30T13:02:07.793Z,20.31
2023-04-30T13:03:07.848Z,20.31
2023-04-30T13:04:07.905Z,20.16